sensor_id;sensor_type;location;lat;lon;timestamp;temperature;humidity
59301;DHT22;45073;52.740;6.784;2022-08-01T00:00:25;19.00;99.90
59301;DHT22;45073;52.740;6.784;2022-08-01T00:02:51;19.00;99.90
59301;DHT22;45073;52.740;6.784;2022-08-01T00:05:16;18.90;99.90
59301;DHT22;45073;52.740;6.784;2022-08-01T00:07:42;18.90;99.90
59301;DHT22;45073;52.740;6.784;2022-08-01T00:10:10;18.90;99.90
59301;DHT22;45073;52.740;6.784;2022-08-01T00:12:36;18.90;99.90
59301;DHT22;45073;52.740;6.784;2022-08-01T00:15:06;18.90;99.90
59301;DHT22;45073;52.740;6.784;2022-08-01T00:17:32;19.00;99.90
59301;DHT22;45073;52.740;6.784;2022-08-01T00:19:58;18.90;99.90
59301;DHT22;45073;52.740;6.784;2022-08-01T00:22:23;19.00;99.90
59301;DHT22;45073;52.740;6.784;2022-08-01T00:24:49;18.90;99.90
59301;DHT22;45073;52.740;6.784;2022-08-01T00:27:14;19.00;99.90
59301;DHT22;45073;52.740;6.784;2022-08-01T00:29:40;18.90;99.90
59301;DHT22;45073;52.740;6.784;2022-08-01T00:32:06;19.00;99.90
59301;DHT22;45073;52.740;6.784;2022-08-01T00:34:31;19.00;99.90
59301;DHT22;45073;52.740;6.784;2022-08-01T00:36:57;19.00;99.90
59301;DHT22;45073;52.740;6.784;2022-08-01T00:39:23;19.00;99.90
59301;DHT22;45073;52.740;6.784;2022-08-01T00:41:48;19.10;99.90
59301;DHT22;45073;52.740;6.784;2022-08-01T00:44:14;19.10;99.90
59301;DHT22;45073;52.740;6.784;2022-08-01T00:46:40;19.10;99.90
59301;DHT22;45073;52.740;6.784;2022-08-01T00:49:05;19.10;99.90
59301;DHT22;45073;52.740;6.784;2022-08-01T00:51:31;19.10;99.90
59301;DHT22;45073;52.740;6.784;2022-08-01T00:53:56;19.10;99.90
59301;DHT22;45073;52.740;6.784;2022-08-01T00:56:25;19.10;99.90
59301;DHT22;45073;52.740;6.784;2022-08-01T00:58:51;19.10;99.90
59301;DHT22;45073;52.740;6.784;2022-08-01T01:01:18;19.10;99.90
59301;DHT22;45073;52.740;6.784;2022-08-01T01:03:46;19.10;99.90
59301;DHT22;45073;52.740;6.784;2022-08-01T01:12:11;19.10;99.90
59301;DHT22;45073;52.740;6.784;2022-08-01T01:17:48;19.10;99.90
59301;DHT22;45073;52.740;6.784;2022-08-01T01:20:15;19.10;99.90
59301;DHT22;45073;52.740;6.784;2022-08-01T01:23:10;19.00;99.90
59301;DHT22;45073;52.740;6.784;2022-08-01T01:28:07;19.00;99.90
59301;DHT22;45073;52.740;6.784;2022-08-01T01:30:34;19.00;99.90
59301;DHT22;45073;52.740;6.784;2022-08-01T01:33:03;19.00;99.90
59301;DHT22;45073;52.740;6.784;2022-08-01T01:35:36;19.00;99.90
59301;DHT22;45073;52.740;6.784;2022-08-01T01:38:24;19.00;99.90
59301;DHT22;45073;52.740;6.784;2022-08-01T01:40:52;19.00;99.90
59301;DHT22;45073;52.740;6.784;2022-08-01T01:43:18;19.00;99.90
59301;DHT22;45073;52.740;6.784;2022-08-01T01:45:47;19.00;99.90
59301;DHT22;45073;52.740;6.784;2022-08-01T01:48:18;19.00;99.90
59301;DHT22;45073;52.740;6.784;2022-08-01T01:50:48;19.00;99.90
59301;DHT22;45073;52.740;6.784;2022-08-01T01:53:18;19.00;99.90
59301;DHT22;45073;52.740;6.784;2022-08-01T01:55:47;19.00;99.90
59301;DHT22;45073;52.740;6.784;2022-08-01T01:58:15;19.00;99.90
59301;DHT22;45073;52.740;6.784;2022-08-01T02:00:42;19.00;99.90
59301;DHT22;45073;52.740;6.784;2022-08-01T02:03:10;19.00;99.90
59301;DHT22;45073;52.740;6.784;2022-08-01T02:05:37;19.00;99.90
59301;DHT22;45073;52.740;6.784;2022-08-01T02:08:04;19.00;99.90
59301;DHT22;45073;52.740;6.784;2022-08-01T02:10:31;19.00;99.90
59301;DHT22;45073;52.740;6.784;2022-08-01T02:12:58;19.00;99.90
59301;DHT22;45073;52.740;6.784;2022-08-01T02:15:26;19.00;99.90
59301;DHT22;45073;52.740;6.784;2022-08-01T02:17:53;19.00;99.90
59301;DHT22;45073;52.740;6.784;2022-08-01T02:20:20;19.00;99.90
59301;DHT22;45073;52.740;6.784;2022-08-01T02:22:52;19.00;99.90
59301;DHT22;45073;52.740;6.784;2022-08-01T02:25:20;19.00;99.90
59301;DHT22;45073;52.740;6.784;2022-08-01T02:28:00;18.90;99.90
59301;DHT22;45073;52.740;6.784;2022-08-01T02:30:31;19.00;99.90
59301;DHT22;45073;52.740;6.784;2022-08-01T02:33:18;19.00;99.90
59301;DHT22;45073;52.740;6.784;2022-08-01T02:35:50;19.00;99.90
59301;DHT22;45073;52.740;6.784;2022-08-01T02:38:18;19.00;99.90
59301;DHT22;45073;52.740;6.784;2022-08-01T02:40:47;19.00;99.90
59301;DHT22;45073;52.740;6.784;2022-08-01T02:43:19;19.00;99.90
59301;DHT22;45073;52.740;6.784;2022-08-01T02:45:51;19.00;99.90
59301;DHT22;45073;52.740;6.784;2022-08-01T02:48:18;19.00;99.90
59301;DHT22;45073;52.740;6.784;2022-08-01T02:50:48;19.00;99.90
59301;DHT22;45073;52.740;6.784;2022-08-01T02:53:14;19.00;99.90
59301;DHT22;45073;52.740;6.784;2022-08-01T02:55:42;19.00;99.90
59301;DHT22;45073;52.740;6.784;2022-08-01T02:58:10;19.00;99.90
59301;DHT22;45073;52.740;6.784;2022-08-01T03:00:39;19.00;99.90
59301;DHT22;45073;52.740;6.784;2022-08-01T03:03:06;19.00;99.90
59301;DHT22;45073;52.740;6.784;2022-08-01T03:05:33;19.00;99.90
59301;DHT22;45073;52.740;6.784;2022-08-01T03:08:00;19.00;99.90
59301;DHT22;45073;52.740;6.784;2022-08-01T03:10:28;19.00;99.90
59301;DHT22;45073;52.740;6.784;2022-08-01T03:12:55;19.00;99.90
59301;DHT22;45073;52.740;6.784;2022-08-01T03:15:24;19.00;99.90
59301;DHT22;45073;52.740;6.784;2022-08-01T03:17:53;19.00;99.90
59301;DHT22;45073;52.740;6.784;2022-08-01T03:20:21;19.00;99.90
59301;DHT22;45073;52.740;6.784;2022-08-01T03:22:50;19.00;99.90
59301;DHT22;45073;52.740;6.784;2022-08-01T03:25:18;19.00;99.90
59301;DHT22;45073;52.740;6.784;2022-08-01T03:27:55;19.00;99.90
59301;DHT22;45073;52.740;6.784;2022-08-01T03:30:23;19.00;99.90
59301;DHT22;45073;52.740;6.784;2022-08-01T03:32:49;19.00;99.90
59301;DHT22;45073;52.740;6.784;2022-08-01T03:35:15;19.00;99.90
59301;DHT22;45073;52.740;6.784;2022-08-01T03:37:43;19.00;99.90
59301;DHT22;45073;52.740;6.784;2022-08-01T03:40:16;19.00;99.90
59301;DHT22;45073;52.740;6.784;2022-08-01T03:42:47;19.00;99.90
59301;DHT22;45073;52.740;6.784;2022-08-01T03:45:26;19.00;99.90
59301;DHT22;45073;52.740;6.784;2022-08-01T03:47:58;19.00;99.90
59301;DHT22;45073;52.740;6.784;2022-08-01T03:50:25;18.90;99.90
59301;DHT22;45073;52.740;6.784;2022-08-01T03:52:53;18.90;99.90
59301;DHT22;45073;52.740;6.784;2022-08-01T03:55:20;18.90;99.90
59301;DHT22;45073;52.740;6.784;2022-08-01T03:57:47;18.90;99.90
59301;DHT22;45073;52.740;6.784;2022-08-01T04:00:14;18.90;99.90
59301;DHT22;45073;52.740;6.784;2022-08-01T04:02:45;18.90;99.90
59301;DHT22;45073;52.740;6.784;2022-08-01T04:05:10;18.90;99.90
59301;DHT22;45073;52.740;6.784;2022-08-01T04:07:36;18.90;99.90
59301;DHT22;45073;52.740;6.784;2022-08-01T04:10:05;18.90;99.90
59301;DHT22;45073;52.740;6.784;2022-08-01T04:12:30;18.90;99.90
59301;DHT22;45073;52.740;6.784;2022-08-01T04:14:56;18.80;99.90
59301;DHT22;45073;52.740;6.784;2022-08-01T04:17:21;18.80;99.90
59301;DHT22;45073;52.740;6.784;2022-08-01T04:19:47;18.80;99.90
59301;DHT22;45073;52.740;6.784;2022-08-01T04:22:16;18.80;99.90
59301;DHT22;45073;52.740;6.784;2022-08-01T04:24:45;18.80;99.90
59301;DHT22;45073;52.740;6.784;2022-08-01T04:27:21;18.80;99.90
59301;DHT22;45073;52.740;6.784;2022-08-01T04:29:48;18.80;99.90
59301;DHT22;45073;52.740;6.784;2022-08-01T04:32:16;18.80;99.90
59301;DHT22;45073;52.740;6.784;2022-08-01T04:34:44;18.80;99.90
59301;DHT22;45073;52.740;6.784;2022-08-01T04:37:12;18.80;99.90
59301;DHT22;45073;52.740;6.784;2022-08-01T04:39:42;18.80;99.90
59301;DHT22;45073;52.740;6.784;2022-08-01T04:42:08;18.80;99.90
59301;DHT22;45073;52.740;6.784;2022-08-01T04:44:36;18.80;99.90
59301;DHT22;45073;52.740;6.784;2022-08-01T04:47:03;18.80;99.90
59301;DHT22;45073;52.740;6.784;2022-08-01T04:49:37;18.80;99.90
59301;DHT22;45073;52.740;6.784;2022-08-01T04:52:03;18.90;99.90
59301;DHT22;45073;52.740;6.784;2022-08-01T04:54:30;18.80;99.90
59301;DHT22;45073;52.740;6.784;2022-08-01T04:56:58;18.80;99.90
59301;DHT22;45073;52.740;6.784;2022-08-01T04:59:29;18.80;99.90
59301;DHT22;45073;52.740;6.784;2022-08-01T05:02:09;18.80;99.90
59301;DHT22;45073;52.740;6.784;2022-08-01T05:04:35;18.80;99.90
59301;DHT22;45073;52.740;6.784;2022-08-01T05:07:02;18.80;99.90
59301;DHT22;45073;52.740;6.784;2022-08-01T05:09:28;18.80;99.90
59301;DHT22;45073;52.740;6.784;2022-08-01T05:11:53;18.80;99.90
59301;DHT22;45073;52.740;6.784;2022-08-01T05:14:19;18.80;99.90
59301;DHT22;45073;52.740;6.784;2022-08-01T05:16:45;18.80;99.90
59301;DHT22;45073;52.740;6.784;2022-08-01T05:19:11;18.80;99.90
59301;DHT22;45073;52.740;6.784;2022-08-01T05:21:37;18.80;99.90
59301;DHT22;45073;52.740;6.784;2022-08-01T05:24:06;18.90;99.90
59301;DHT22;45073;52.740;6.784;2022-08-01T05:26:31;18.80;99.90
59301;DHT22;45073;52.740;6.784;2022-08-01T05:28:58;18.80;99.90
59301;DHT22;45073;52.740;6.784;2022-08-01T05:31:24;18.80;99.90
59301;DHT22;45073;52.740;6.784;2022-08-01T05:33:50;18.90;99.90
59301;DHT22;45073;52.740;6.784;2022-08-01T05:36:15;18.90;99.90
59301;DHT22;45073;52.740;6.784;2022-08-01T05:38:41;18.80;99.90
59301;DHT22;45073;52.740;6.784;2022-08-01T05:41:06;18.80;99.90
59301;DHT22;45073;52.740;6.784;2022-08-01T05:43:32;18.80;99.90
59301;DHT22;45073;52.740;6.784;2022-08-01T05:45:57;18.80;99.90
59301;DHT22;45073;52.740;6.784;2022-08-01T05:48:24;18.80;99.90
59301;DHT22;45073;52.740;6.784;2022-08-01T05:50:50;18.80;99.90
59301;DHT22;45073;52.740;6.784;2022-08-01T05:53:16;18.80;99.90
59301;DHT22;45073;52.740;6.784;2022-08-01T05:55:41;18.80;99.90
59301;DHT22;45073;52.740;6.784;2022-08-01T05:58:07;18.80;99.90
59301;DHT22;45073;52.740;6.784;2022-08-01T06:00:33;18.80;99.90
59301;DHT22;45073;52.740;6.784;2022-08-01T06:02:58;18.70;99.90
59301;DHT22;45073;52.740;6.784;2022-08-01T06:05:24;18.80;99.90
59301;DHT22;45073;52.740;6.784;2022-08-01T06:07:49;18.80;99.90
59301;DHT22;45073;52.740;6.784;2022-08-01T06:10:15;18.80;99.90
59301;DHT22;45073;52.740;6.784;2022-08-01T06:12:40;18.80;99.90
59301;DHT22;45073;52.740;6.784;2022-08-01T06:15:07;18.80;99.90
59301;DHT22;45073;52.740;6.784;2022-08-01T06:17:33;18.80;99.90
59301;DHT22;45073;52.740;6.784;2022-08-01T06:19:59;18.80;99.90
59301;DHT22;45073;52.740;6.784;2022-08-01T06:22:25;18.80;99.90
59301;DHT22;45073;52.740;6.784;2022-08-01T06:24:51;18.80;99.90
59301;DHT22;45073;52.740;6.784;2022-08-01T06:27:17;18.90;99.90
59301;DHT22;45073;52.740;6.784;2022-08-01T06:29:43;18.90;99.90
59301;DHT22;45073;52.740;6.784;2022-08-01T06:32:09;19.00;99.90
59301;DHT22;45073;52.740;6.784;2022-08-01T06:34:35;19.00;99.90
59301;DHT22;45073;52.740;6.784;2022-08-01T06:37:01;19.10;99.90
59301;DHT22;45073;52.740;6.784;2022-08-01T06:39:26;19.10;99.90
59301;DHT22;45073;52.740;6.784;2022-08-01T06:41:52;19.20;99.90
59301;DHT22;45073;52.740;6.784;2022-08-01T06:44:17;19.20;99.90
59301;DHT22;45073;52.740;6.784;2022-08-01T06:46:43;19.30;99.90
59301;DHT22;45073;52.740;6.784;2022-08-01T06:49:08;19.30;99.90
59301;DHT22;45073;52.740;6.784;2022-08-01T06:51:34;19.40;99.90
59301;DHT22;45073;52.740;6.784;2022-08-01T06:54:00;19.40;99.90
59301;DHT22;45073;52.740;6.784;2022-08-01T06:56:25;19.50;99.90
59301;DHT22;45073;52.740;6.784;2022-08-01T06:58:51;19.50;99.90
59301;DHT22;45073;52.740;6.784;2022-08-01T07:01:16;19.50;99.90
59301;DHT22;45073;52.740;6.784;2022-08-01T07:03:42;19.60;99.90
59301;DHT22;45073;52.740;6.784;2022-08-01T07:06:08;19.60;99.90
59301;DHT22;45073;52.740;6.784;2022-08-01T07:08:33;19.70;99.90
59301;DHT22;45073;52.740;6.784;2022-08-01T07:10:59;19.80;99.90
59301;DHT22;45073;52.740;6.784;2022-08-01T07:13:28;19.90;99.90
59301;DHT22;45073;52.740;6.784;2022-08-01T07:15:56;19.90;99.90
59301;DHT22;45073;52.740;6.784;2022-08-01T07:18:22;19.90;99.90
59301;DHT22;45073;52.740;6.784;2022-08-01T07:20:49;19.90;99.90
59301;DHT22;45073;52.740;6.784;2022-08-01T07:23:15;19.90;99.90
59301;DHT22;45073;52.740;6.784;2022-08-01T07:25:41;19.90;99.90
59301;DHT22;45073;52.740;6.784;2022-08-01T07:28:07;19.80;99.90
59301;DHT22;45073;52.740;6.784;2022-08-01T07:30:32;19.80;99.90
59301;DHT22;45073;52.740;6.784;2022-08-01T07:32:58;19.90;99.90
59301;DHT22;45073;52.740;6.784;2022-08-01T07:35:24;19.90;99.90
59301;DHT22;45073;52.740;6.784;2022-08-01T07:37:49;19.90;99.90
59301;DHT22;45073;52.740;6.784;2022-08-01T07:40:16;19.90;99.90
59301;DHT22;45073;52.740;6.784;2022-08-01T07:42:43;19.90;99.90
59301;DHT22;45073;52.740;6.784;2022-08-01T07:45:11;19.90;99.90
59301;DHT22;45073;52.740;6.784;2022-08-01T07:47:37;19.90;99.90
59301;DHT22;45073;52.740;6.784;2022-08-01T07:50:04;19.90;99.90
59301;DHT22;45073;52.740;6.784;2022-08-01T07:52:30;19.90;99.90
59301;DHT22;45073;52.740;6.784;2022-08-01T07:54:56;19.90;99.90
59301;DHT22;45073;52.740;6.784;2022-08-01T07:57:22;19.90;99.90
59301;DHT22;45073;52.740;6.784;2022-08-01T07:59:48;19.90;99.90
59301;DHT22;45073;52.740;6.784;2022-08-01T08:02:14;19.90;99.90
59301;DHT22;45073;52.740;6.784;2022-08-01T08:04:40;19.90;99.90
59301;DHT22;45073;52.740;6.784;2022-08-01T08:07:05;20.00;99.90
59301;DHT22;45073;52.740;6.784;2022-08-01T08:09:31;20.00;99.90
59301;DHT22;45073;52.740;6.784;2022-08-01T08:11:56;20.00;99.90
59301;DHT22;45073;52.740;6.784;2022-08-01T08:14:22;20.00;99.90
59301;DHT22;45073;52.740;6.784;2022-08-01T08:16:50;20.00;99.90
59301;DHT22;45073;52.740;6.784;2022-08-01T08:19:15;20.00;99.90
59301;DHT22;45073;52.740;6.784;2022-08-01T08:21:41;20.10;99.90
59301;DHT22;45073;52.740;6.784;2022-08-01T08:24:08;20.10;99.90
59301;DHT22;45073;52.740;6.784;2022-08-01T08:26:47;20.10;99.90
59301;DHT22;45073;52.740;6.784;2022-08-01T08:29:13;20.10;99.90
59301;DHT22;45073;52.740;6.784;2022-08-01T08:31:39;20.10;99.90
59301;DHT22;45073;52.740;6.784;2022-08-01T08:34:05;20.20;99.90
59301;DHT22;45073;52.740;6.784;2022-08-01T08:36:31;20.20;99.90
59301;DHT22;45073;52.740;6.784;2022-08-01T08:38:57;20.20;99.90
59301;DHT22;45073;52.740;6.784;2022-08-01T08:41:22;20.30;99.90
59301;DHT22;45073;52.740;6.784;2022-08-01T08:43:48;20.40;99.90
59301;DHT22;45073;52.740;6.784;2022-08-01T08:46:14;20.40;99.90
59301;DHT22;45073;52.740;6.784;2022-08-01T08:48:47;20.40;99.90
59301;DHT22;45073;52.740;6.784;2022-08-01T08:51:16;20.40;99.90
59301;DHT22;45073;52.740;6.784;2022-08-01T08:53:44;20.40;99.90
59301;DHT22;45073;52.740;6.784;2022-08-01T08:56:14;20.50;99.90
59301;DHT22;45073;52.740;6.784;2022-08-01T08:58:45;20.60;99.90
59301;DHT22;45073;52.740;6.784;2022-08-01T09:01:11;20.60;99.90
59301;DHT22;45073;52.740;6.784;2022-08-01T09:03:38;20.70;99.90
59301;DHT22;45073;52.740;6.784;2022-08-01T09:06:04;20.70;99.90
59301;DHT22;45073;52.740;6.784;2022-08-01T09:08:30;20.80;99.90
59301;DHT22;45073;52.740;6.784;2022-08-01T09:10:55;20.80;99.90
59301;DHT22;45073;52.740;6.784;2022-08-01T09:13:21;20.90;99.90
59301;DHT22;45073;52.740;6.784;2022-08-01T09:15:49;20.90;99.90
59301;DHT22;45073;52.740;6.784;2022-08-01T09:21:18;21.10;99.90
59301;DHT22;45073;52.740;6.784;2022-08-01T09:23:53;21.10;99.90
59301;DHT22;45073;52.740;6.784;2022-08-01T09:26:31;21.20;99.90
59301;DHT22;45073;52.740;6.784;2022-08-01T09:28:57;21.30;99.90
59301;DHT22;45073;52.740;6.784;2022-08-01T09:31:26;21.30;99.90
59301;DHT22;45073;52.740;6.784;2022-08-01T09:34:00;21.40;99.90
59301;DHT22;45073;52.740;6.784;2022-08-01T09:36:51;21.40;99.90
59301;DHT22;45073;52.740;6.784;2022-08-01T09:39:22;21.40;99.90
59301;DHT22;45073;52.740;6.784;2022-08-01T09:41:48;21.40;99.90
59301;DHT22;45073;52.740;6.784;2022-08-01T09:44:15;21.50;99.90
59301;DHT22;45073;52.740;6.784;2022-08-01T09:46:55;21.60;99.90
59301;DHT22;45073;52.740;6.784;2022-08-01T09:49:32;21.60;99.90
59301;DHT22;45073;52.740;6.784;2022-08-01T09:52:13;21.60;99.90
59301;DHT22;45073;52.740;6.784;2022-08-01T09:54:40;21.60;99.90
59301;DHT22;45073;52.740;6.784;2022-08-01T09:57:14;21.70;99.90
59301;DHT22;45073;52.740;6.784;2022-08-01T09:59:42;21.70;99.90
59301;DHT22;45073;52.740;6.784;2022-08-01T10:02:13;21.70;99.90
59301;DHT22;45073;52.740;6.784;2022-08-01T10:04:48;21.70;99.90
59301;DHT22;45073;52.740;6.784;2022-08-01T10:07:14;21.80;99.90
59301;DHT22;45073;52.740;6.784;2022-08-01T10:09:41;21.90;99.90
59301;DHT22;45073;52.740;6.784;2022-08-01T10:12:08;21.90;99.90
59301;DHT22;45073;52.740;6.784;2022-08-01T10:14:37;21.90;99.90
59301;DHT22;45073;52.740;6.784;2022-08-01T10:17:03;22.00;99.90
59301;DHT22;45073;52.740;6.784;2022-08-01T10:19:31;22.10;99.90
59301;DHT22;45073;52.740;6.784;2022-08-01T10:21:58;22.20;99.90
59301;DHT22;45073;52.740;6.784;2022-08-01T10:24:26;22.20;99.90
59301;DHT22;45073;52.740;6.784;2022-08-01T10:26:56;22.30;99.90
59301;DHT22;45073;52.740;6.784;2022-08-01T10:29:25;22.30;99.90
59301;DHT22;45073;52.740;6.784;2022-08-01T10:31:51;22.30;99.90
59301;DHT22;45073;52.740;6.784;2022-08-01T10:34:17;22.40;99.90
59301;DHT22;45073;52.740;6.784;2022-08-01T10:36:46;22.50;99.90
59301;DHT22;45073;52.740;6.784;2022-08-01T10:39:12;22.50;99.90
59301;DHT22;45073;52.740;6.784;2022-08-01T10:41:39;22.60;99.90
59301;DHT22;45073;52.740;6.784;2022-08-01T10:44:07;22.60;99.90
59301;DHT22;45073;52.740;6.784;2022-08-01T10:46:37;22.60;99.90
59301;DHT22;45073;52.740;6.784;2022-08-01T10:49:10;22.70;99.90
59301;DHT22;45073;52.740;6.784;2022-08-01T10:51:38;22.80;99.90
59301;DHT22;45073;52.740;6.784;2022-08-01T10:54:10;22.80;99.90
59301;DHT22;45073;52.740;6.784;2022-08-01T10:56:45;22.90;99.90
59301;DHT22;45073;52.740;6.784;2022-08-01T10:59:24;22.90;99.90
59301;DHT22;45073;52.740;6.784;2022-08-01T11:02:01;23.10;99.90
59301;DHT22;45073;52.740;6.784;2022-08-01T11:07:07;23.10;99.90
59301;DHT22;45073;52.740;6.784;2022-08-01T11:09:44;23.10;99.90
59301;DHT22;45073;52.740;6.784;2022-08-01T11:12:18;23.10;99.90
59301;DHT22;45073;52.740;6.784;2022-08-01T11:17:35;23.40;99.90
59301;DHT22;45073;52.740;6.784;2022-08-01T11:20:08;23.40;99.90
59301;DHT22;45073;52.740;6.784;2022-08-01T11:30:51;23.60;99.90
59301;DHT22;45073;52.740;6.784;2022-08-01T11:33:19;23.60;99.90
59301;DHT22;45073;52.740;6.784;2022-08-01T11:38:37;23.70;99.90
59301;DHT22;45073;52.740;6.784;2022-08-01T11:43:34;23.90;99.90
59301;DHT22;45073;52.740;6.784;2022-08-01T11:46:00;24.00;99.90
59301;DHT22;45073;52.740;6.784;2022-08-01T11:48:27;24.00;99.90
59301;DHT22;45073;52.740;6.784;2022-08-01T11:50:57;24.00;99.90
59301;DHT22;45073;52.740;6.784;2022-08-01T11:53:23;24.00;99.90
59301;DHT22;45073;52.740;6.784;2022-08-01T11:55:50;24.00;99.90
59301;DHT22;45073;52.740;6.784;2022-08-01T11:58:21;24.00;99.90
59301;DHT22;45073;52.740;6.784;2022-08-01T12:00:55;24.10;99.90
59301;DHT22;45073;52.740;6.784;2022-08-01T12:03:25;24.10;99.60
59301;DHT22;45073;52.740;6.784;2022-08-01T12:05:53;24.00;99.00
59301;DHT22;45073;52.740;6.784;2022-08-01T12:08:32;24.00;98.60
59301;DHT22;45073;52.740;6.784;2022-08-01T12:11:00;23.90;99.40
59301;DHT22;45073;52.740;6.784;2022-08-01T12:13:26;23.90;98.60
59301;DHT22;45073;52.740;6.784;2022-08-01T12:15:52;23.80;99.00
59301;DHT22;45073;52.740;6.784;2022-08-01T12:18:18;23.90;99.10
59301;DHT22;45073;52.740;6.784;2022-08-01T12:20:46;23.80;99.90
59301;DHT22;45073;52.740;6.784;2022-08-01T12:23:13;23.90;99.50
59301;DHT22;45073;52.740;6.784;2022-08-01T12:25:40;23.90;98.70
59301;DHT22;45073;52.740;6.784;2022-08-01T12:28:10;23.90;98.70
59301;DHT22;45073;52.740;6.784;2022-08-01T12:30:37;23.90;97.40
59301;DHT22;45073;52.740;6.784;2022-08-01T12:33:09;24.00;96.50
59301;DHT22;45073;52.740;6.784;2022-08-01T12:35:37;24.00;96.80
59301;DHT22;45073;52.740;6.784;2022-08-01T12:38:06;24.10;98.40
59301;DHT22;45073;52.740;6.784;2022-08-01T12:40:37;24.20;98.10
59301;DHT22;45073;52.740;6.784;2022-08-01T12:43:07;24.20;97.10
59301;DHT22;45073;52.740;6.784;2022-08-01T12:45:38;24.30;96.50
59301;DHT22;45073;52.740;6.784;2022-08-01T12:48:10;24.30;94.70
59301;DHT22;45073;52.740;6.784;2022-08-01T12:50:38;24.30;97.00
59301;DHT22;45073;52.740;6.784;2022-08-01T12:53:04;24.40;94.20
59301;DHT22;45073;52.740;6.784;2022-08-01T12:55:30;24.40;92.40
59301;DHT22;45073;52.740;6.784;2022-08-01T12:58:11;24.10;93.40
59301;DHT22;45073;52.740;6.784;2022-08-01T13:00:38;24.10;93.50
59301;DHT22;45073;52.740;6.784;2022-08-01T13:03:07;24.00;91.20
59301;DHT22;45073;52.740;6.784;2022-08-01T13:05:49;24.00;95.80
59301;DHT22;45073;52.740;6.784;2022-08-01T13:08:24;24.10;94.80
59301;DHT22;45073;52.740;6.784;2022-08-01T13:10:53;24.10;91.60
59301;DHT22;45073;52.740;6.784;2022-08-01T13:13:26;24.20;92.00
59301;DHT22;45073;52.740;6.784;2022-08-01T13:16:07;24.00;81.30
59301;DHT22;45073;52.740;6.784;2022-08-01T13:18:33;23.90;80.60
59301;DHT22;45073;52.740;6.784;2022-08-01T13:21:19;23.80;85.20
59301;DHT22;45073;52.740;6.784;2022-08-01T13:26:50;24.20;94.60
59301;DHT22;45073;52.740;6.784;2022-08-01T13:29:22;24.40;94.10
59301;DHT22;45073;52.740;6.784;2022-08-01T13:31:53;24.40;93.60
59301;DHT22;45073;52.740;6.784;2022-08-01T13:34:32;24.50;92.10
59301;DHT22;45073;52.740;6.784;2022-08-01T13:36:58;24.60;93.00
59301;DHT22;45073;52.740;6.784;2022-08-01T13:39:24;24.80;92.30
59301;DHT22;45073;52.740;6.784;2022-08-01T13:42:12;25.00;91.00
59301;DHT22;45073;52.740;6.784;2022-08-01T13:44:38;25.00;90.50
59301;DHT22;45073;52.740;6.784;2022-08-01T13:47:04;25.20;90.10
59301;DHT22;45073;52.740;6.784;2022-08-01T13:49:30;25.30;89.20
59301;DHT22;45073;52.740;6.784;2022-08-01T13:51:57;25.30;81.90
59301;DHT22;45073;52.740;6.784;2022-08-01T13:54:22;25.20;87.30
59301;DHT22;45073;52.740;6.784;2022-08-01T13:56:49;25.20;89.20
59301;DHT22;45073;52.740;6.784;2022-08-01T13:59:14;25.20;85.20
59301;DHT22;45073;52.740;6.784;2022-08-01T14:01:40;25.20;82.90
59301;DHT22;45073;52.740;6.784;2022-08-01T14:04:06;25.30;87.20
59301;DHT22;45073;52.740;6.784;2022-08-01T14:06:32;25.40;81.80
59301;DHT22;45073;52.740;6.784;2022-08-01T14:08:58;25.40;82.10
59301;DHT22;45073;52.740;6.784;2022-08-01T14:11:23;25.50;76.80
59301;DHT22;45073;52.740;6.784;2022-08-01T14:13:49;25.30;77.40
59301;DHT22;45073;52.740;6.784;2022-08-01T14:16:16;25.30;81.50
59301;DHT22;45073;52.740;6.784;2022-08-01T14:18:42;25.50;82.50
59301;DHT22;45073;52.740;6.784;2022-08-01T14:21:08;25.70;80.00
59301;DHT22;45073;52.740;6.784;2022-08-01T14:23:33;25.60;73.60
59301;DHT22;45073;52.740;6.784;2022-08-01T14:25:59;25.50;69.50
59301;DHT22;45073;52.740;6.784;2022-08-01T14:28:25;25.60;71.30
59301;DHT22;45073;52.740;6.784;2022-08-01T14:30:52;25.70;76.00
59301;DHT22;45073;52.740;6.784;2022-08-01T14:33:18;25.80;74.60
59301;DHT22;45073;52.740;6.784;2022-08-01T14:35:43;25.90;73.50
59301;DHT22;45073;52.740;6.784;2022-08-01T14:38:09;25.90;74.30
59301;DHT22;45073;52.740;6.784;2022-08-01T14:40:35;25.80;71.70
59301;DHT22;45073;52.740;6.784;2022-08-01T14:43:00;25.60;68.90
59301;DHT22;45073;52.740;6.784;2022-08-01T14:45:27;25.50;68.50
59301;DHT22;45073;52.740;6.784;2022-08-01T14:47:53;25.40;65.10
59301;DHT22;45073;52.740;6.784;2022-08-01T14:50:18;25.20;66.20
59301;DHT22;45073;52.740;6.784;2022-08-01T14:52:44;25.00;64.30
59301;DHT22;45073;52.740;6.784;2022-08-01T14:55:11;24.90;67.20
59301;DHT22;45073;52.740;6.784;2022-08-01T14:57:38;24.80;64.70
59301;DHT22;45073;52.740;6.784;2022-08-01T15:00:06;24.80;67.00
59301;DHT22;45073;52.740;6.784;2022-08-01T15:02:32;24.80;67.90
59301;DHT22;45073;52.740;6.784;2022-08-01T15:04:58;24.80;70.50
59301;DHT22;45073;52.740;6.784;2022-08-01T15:07:23;24.90;71.20
59301;DHT22;45073;52.740;6.784;2022-08-01T15:09:49;25.00;66.80
59301;DHT22;45073;52.740;6.784;2022-08-01T15:12:15;24.90;68.70
59301;DHT22;45073;52.740;6.784;2022-08-01T15:14:40;24.80;68.70
59301;DHT22;45073;52.740;6.784;2022-08-01T15:17:23;24.80;65.30
59301;DHT22;45073;52.740;6.784;2022-08-01T15:19:59;24.90;65.90
59301;DHT22;45073;52.740;6.784;2022-08-01T15:22:26;24.90;65.30
59301;DHT22;45073;52.740;6.784;2022-08-01T15:24:53;24.90;66.40
59301;DHT22;45073;52.740;6.784;2022-08-01T15:27:19;24.90;67.50
59301;DHT22;45073;52.740;6.784;2022-08-01T15:29:46;25.00;67.50
59301;DHT22;45073;52.740;6.784;2022-08-01T15:32:12;24.90;67.80
59301;DHT22;45073;52.740;6.784;2022-08-01T15:34:38;24.90;66.90
59301;DHT22;45073;52.740;6.784;2022-08-01T15:37:05;24.90;66.80
59301;DHT22;45073;52.740;6.784;2022-08-01T15:39:32;24.90;66.80
59301;DHT22;45073;52.740;6.784;2022-08-01T15:41:59;24.80;66.60
59301;DHT22;45073;52.740;6.784;2022-08-01T15:44:25;24.80;67.40
59301;DHT22;45073;52.740;6.784;2022-08-01T15:46:51;24.80;69.20
59301;DHT22;45073;52.740;6.784;2022-08-01T15:49:17;24.80;69.50
59301;DHT22;45073;52.740;6.784;2022-08-01T15:51:44;25.00;70.60
59301;DHT22;45073;52.740;6.784;2022-08-01T15:54:10;25.00;71.90
59301;DHT22;45073;52.740;6.784;2022-08-01T15:56:36;25.10;71.10
59301;DHT22;45073;52.740;6.784;2022-08-01T15:59:02;25.10;71.70
59301;DHT22;45073;52.740;6.784;2022-08-01T16:01:28;25.20;70.90
59301;DHT22;45073;52.740;6.784;2022-08-01T16:03:55;25.20;70.80
59301;DHT22;45073;52.740;6.784;2022-08-01T16:06:21;25.20;69.60
59301;DHT22;45073;52.740;6.784;2022-08-01T16:08:47;25.20;68.90
59301;DHT22;45073;52.740;6.784;2022-08-01T16:11:13;25.10;68.20